Fredericksburg, Indiana
Current Conditions -  °F | °C
As of 10:56 AM on Saturday 20 Dec 2014 (Local Time) from KSDF Reporting Station
Haze Haze  
Wind Chill: 34°   Ceiling: 5500
Heat Index: 34°   Visibility: 6mi
Dew Point: 26°   Wind: 0mph
Humidity: 73%   Direction: NA
Pressure: 30.31"   Gusts: NA
Location:  38.43°N, 86.19°W
Report Text: KSDF 201556Z 00000KT 6SM HZ SCT013 OVC055 01/M03 A3031 RMK AO2 SLP268 T00111033
Loading
Personal Weather Stations






























Interactive Weather Map New forecast layout! Learn more

10-Day Weather Forecast

Advertisements
Track Severe Weather on mobile